createdAt,value
2019-01-21T00:00:17.600Z,32.03
2019-01-21T00:02:46.222Z,27.60
2019-01-21T00:05:14.761Z,27.03
2019-01-21T00:07:43.442Z,21.47
2019-01-21T00:10:12.281Z,28.70
2019-01-21T00:12:40.783Z,24.10
2019-01-21T00:15:09.866Z,21.83
2019-01-21T00:17:38.382Z,25.50
2019-01-21T00:20:07.759Z,26.77
2019-01-21T00:22:36.169Z,25.10
2019-01-21T00:25:06.582Z,23.90
2019-01-21T00:27:35.309Z,27.23
2019-01-21T00:30:05.669Z,30.10
2019-01-21T00:32:34.398Z,24.00
2019-01-21T00:35:03.247Z,21.87
2019-01-21T00:37:31.990Z,21.90
2019-01-21T00:40:00.744Z,26.93
2019-01-21T00:42:29.524Z,19.73
2019-01-21T00:44:58.212Z,27.37
2019-01-21T00:47:30.073Z,24.20
2019-01-21T00:49:57.213Z,24.80
2019-01-21T00:52:26.799Z,23.50
2019-01-21T00:54:55.516Z,21.93
2019-01-21T00:57:24.024Z,25.40
2019-01-21T00:59:52.760Z,24.73
2019-01-21T01:02:21.305Z,29.93
2019-01-21T01:04:50.010Z,24.97
2019-01-21T01:07:18.517Z,25.10
2019-01-21T01:09:47.334Z,23.17
2019-01-21T01:12:16.069Z,21.23
2019-01-21T01:14:44.737Z,26.23
2019-01-21T01:17:13.189Z,23.30
2019-01-21T01:19:41.866Z,22.30
2019-01-21T01:22:10.553Z,25.50
2019-01-21T01:24:39.326Z,27.67
2019-01-21T01:27:07.766Z,21.80
2019-01-21T01:29:36.744Z,25.00
2019-01-21T01:32:05.575Z,26.37
2019-01-21T01:34:34.224Z,36.63
2019-01-21T01:37:02.633Z,21.23
2019-01-21T01:39:31.098Z,24.90
2019-01-21T01:41:59.845Z,26.30
2019-01-21T01:44:28.549Z,28.97
2019-01-21T01:46:57.030Z,24.60
2019-01-21T01:49:25.447Z,25.17
2019-01-21T01:51:53.863Z,27.30
2019-01-21T01:54:22.621Z,23.67
2019-01-21T01:56:51.048Z,26.47
2019-01-21T01:59:19.548Z,22.83
2019-01-21T02:01:48.006Z,25.80
2019-01-21T02:04:16.492Z,24.77
2019-01-21T02:06:44.948Z,24.77
2019-01-21T02:09:14.630Z,28.30
2019-01-21T02:11:43.352Z,26.03
2019-01-21T02:14:11.881Z,28.80
2019-01-21T02:16:40.583Z,26.53
2019-01-21T02:19:09.013Z,25.13
2019-01-21T02:21:38.485Z,28.83
2019-01-21T02:24:07.469Z,24.47
2019-01-21T02:26:39.247Z,30.70
2019-01-21T02:29:11.470Z,32.30
2019-01-21T02:31:59.676Z,31.30
2019-01-21T02:34:34.367Z,24.83
2019-01-21T02:37:11.598Z,32.80
2019-01-21T02:39:51.840Z,29.60
2019-01-21T02:42:35.067Z,26.80
2019-01-21T02:45:35.208Z,27.13
2019-01-21T02:48:09.449Z,29.00
2019-01-21T02:50:43.955Z,24.83
2019-01-21T02:53:33.797Z,24.30
2019-01-21T02:56:20.199Z,25.40
2019-01-21T02:59:09.089Z,26.70
2019-01-21T03:01:46.669Z,26.40
2019-01-21T03:04:33.082Z,29.30
2019-01-21T03:07:07.470Z,26.77
2019-01-21T03:09:47.973Z,27.67
2019-01-21T03:12:37.636Z,31.47
2019-01-21T03:15:31.566Z,25.40
2019-01-21T03:18:24.292Z,24.97
2019-01-21T03:21:14.214Z,23.87
2019-01-21T03:24:08.297Z,25.77
2019-01-21T03:26:48.816Z,31.03
2019-01-21T03:29:23.276Z,29.13
2019-01-21T03:32:12.937Z,27.90
2019-01-21T03:34:58.936Z,23.97
2019-01-21T03:37:45.127Z,25.07
2019-01-21T03:40:28.430Z,23.90
2019-01-21T03:43:11.553Z,29.90
2019-01-21T03:45:46.449Z,27.10
2019-01-21T03:48:17.991Z,27.73
2019-01-21T03:50:55.179Z,27.70
2019-01-21T03:53:38.692Z,25.13
2019-01-21T03:56:09.241Z,27.00
2019-01-21T03:58:46.439Z,30.37
2019-01-21T04:01:23.990Z,34.50
2019-01-21T04:04:07.359Z,23.53
2019-01-21T04:06:38.986Z,28.93
2019-01-21T04:09:19.237Z,28.17
2019-01-21T04:11:59.666Z,30.57
2019-01-21T04:14:52.155Z,29.43
2019-01-21T04:17:45.947Z,25.60
2019-01-21T04:20:19.849Z,30.23
2019-01-21T04:23:16.918Z,26.83
2019-01-21T04:25:48.406Z,26.37
2019-01-21T04:28:25.764Z,29.37
2019-01-21T04:31:05.957Z,22.70
2019-01-21T04:33:40.423Z,32.47
2019-01-21T04:36:17.822Z,27.37
2019-01-21T04:39:04.518Z,34.60
2019-01-21T04:41:38.678Z,29.97
2019-01-21T04:44:16.482Z,29.13
2019-01-21T04:46:53.406Z,28.53
2019-01-21T04:49:28.659Z,31.40
2019-01-21T04:52:28.506Z,28.43
2019-01-21T04:55:21.231Z,27.97
2019-01-21T04:57:58.780Z,25.87
2019-01-21T05:01:03.859Z,33.30
2019-01-21T05:03:54.707Z,25.17
2019-01-21T05:06:58.953Z,26.43
2019-01-21T05:09:45.173Z,32.80
2019-01-21T05:12:19.570Z,27.03
2019-01-21T05:15:10.433Z,24.60
2019-01-21T05:17:42.335Z,29.30
2019-01-21T05:20:45.656Z,29.70
2019-01-21T05:23:17.526Z,28.30
2019-01-21T05:26:08.117Z,30.03
2019-01-21T05:28:39.687Z,33.03
2019-01-21T05:31:32.628Z,29.10
2019-01-21T05:34:07.118Z,26.40
2019-01-21T05:36:47.156Z,25.37
2019-01-21T05:39:33.846Z,29.90
2019-01-21T05:42:33.683Z,29.83
2019-01-21T05:45:17.098Z,23.23
2019-01-21T05:48:04.668Z,26.30
2019-01-21T05:50:47.974Z,30.30
2019-01-21T05:53:22.057Z,31.77
2019-01-21T05:56:10.204Z,28.03
2019-01-21T05:58:56.835Z,32.13
2019-01-21T06:02:04.270Z,29.00
2019-01-21T06:04:38.726Z,25.03
2019-01-21T06:07:34.146Z,26.63
2019-01-21T06:10:08.127Z,28.00
2019-01-21T06:12:57.747Z,32.60
2019-01-21T06:15:44.196Z,24.57
2019-01-21T06:18:19.614Z,29.83
2019-01-21T06:21:25.880Z,23.50
2019-01-21T06:24:00.521Z,24.80
2019-01-21T06:26:32.006Z,26.10
2019-01-21T06:29:09.206Z,24.50
2019-01-21T06:31:46.944Z,29.00
2019-01-21T06:34:30.146Z,25.33
2019-01-21T06:37:16.538Z,28.83
2019-01-21T06:39:54.031Z,24.00
2019-01-21T06:42:25.790Z,28.97
2019-01-21T06:45:00.391Z,34.17
2019-01-21T06:47:52.750Z,35.70
2019-01-21T06:50:38.953Z,27.20
2019-01-21T06:53:30.599Z,30.50
2019-01-21T06:56:07.687Z,23.20
2019-01-21T06:58:40.364Z,29.20
2019-01-21T07:01:37.613Z,28.40
2019-01-21T07:04:25.798Z,27.73
2019-01-21T07:07:21.913Z,26.73
2019-01-21T07:10:08.404Z,28.70
2019-01-21T07:12:56.327Z,30.73
2019-01-21T07:15:48.638Z,28.47
2019-01-21T07:18:20.259Z,24.63
2019-01-21T07:21:11.346Z,29.97
2019-01-21T07:23:55.080Z,36.43
2019-01-21T07:26:32.419Z,28.20
2019-01-21T07:29:24.730Z,26.83
2019-01-21T07:31:59.319Z,34.43
2019-01-21T07:34:39.813Z,28.83
2019-01-21T07:37:23.257Z,33.63
2019-01-21T07:40:03.651Z,33.07
2019-01-21T07:42:40.952Z,29.57
2019-01-21T07:45:27.355Z,27.30
2019-01-21T07:48:16.855Z,25.17
2019-01-21T07:50:54.204Z,30.50
2019-01-21T07:53:37.627Z,35.03
2019-01-21T07:56:37.521Z,30.90
2019-01-21T07:59:14.687Z,27.67
2019-01-21T08:02:07.105Z,29.93
2019-01-21T08:04:50.666Z,27.53
2019-01-21T08:07:38.850Z,26.83
2019-01-21T08:10:40.422Z,35.37
2019-01-21T08:13:42.420Z,35.03
2019-01-21T08:16:34.649Z,29.37
2019-01-21T08:19:24.455Z,34.43
2019-01-21T08:22:14.117Z,27.63
2019-01-21T08:24:51.652Z,27.87
2019-01-21T08:27:39.528Z,27.43
2019-01-21T08:30:17.147Z,28.60
2019-01-21T08:33:03.613Z,28.03
2019-01-21T08:35:35.187Z,30.10
2019-01-21T08:38:06.721Z,27.83
2019-01-21T08:40:57.921Z,29.07
2019-01-21T08:43:44.642Z,29.13
2019-01-21T08:46:16.412Z,33.67
2019-01-21T08:48:57.000Z,38.47
2019-01-21T08:51:43.640Z,23.10
2019-01-21T08:54:32.832Z,24.27
2019-01-21T08:57:38.375Z,26.47
2019-01-21T09:00:18.723Z,29.23
2019-01-21T09:03:05.536Z,31.43
2019-01-21T09:06:06.947Z,33.23
2019-01-21T09:09:04.535Z,27.30
2019-01-21T09:11:57.036Z,27.80
2019-01-21T09:14:49.371Z,26.60
2019-01-21T09:17:26.525Z,27.83
2019-01-21T09:20:10.990Z,32.20
2019-01-21T09:22:42.521Z,26.00
2019-01-21T09:25:34.529Z,24.90
2019-01-21T09:28:22.541Z,26.90
2019-01-21T09:31:00.278Z,23.30
2019-01-21T09:33:37.404Z,24.03
2019-01-21T09:36:24.036Z,32.30
2019-01-21T09:39:10.524Z,29.57
2019-01-21T09:41:47.841Z,26.47
2019-01-21T09:44:28.202Z,25.90
2019-01-21T09:46:55.819Z,25.07
2019-01-21T09:49:23.136Z,26.43
2019-01-21T09:51:53.694Z,31.70
2019-01-21T09:54:23.035Z,31.70
2019-01-21T09:56:54.253Z,36.30
2019-01-21T09:59:24.097Z,21.90
2019-01-21T10:01:55.898Z,26.67
2019-01-21T10:04:30.495Z,29.10
2019-01-21T10:07:13.928Z,31.07
2019-01-21T10:09:45.704Z,26.37
2019-01-21T10:12:24.390Z,27.17
2019-01-21T10:15:05.031Z,24.47
2019-01-21T10:17:36.827Z,27.10
2019-01-21T10:20:38.294Z,24.37
2019-01-21T10:23:18.690Z,26.57
2019-01-21T10:26:07.821Z,24.80
2019-01-21T10:28:42.377Z,24.90
2019-01-21T10:31:29.145Z,28.00
2019-01-21T10:34:18.349Z,25.27
2019-01-21T10:37:06.433Z,21.37
2019-01-21T10:39:56.145Z,20.47
2019-01-21T10:42:33.546Z,20.90
2019-01-21T10:45:10.960Z,21.73
2019-01-21T10:47:45.123Z,27.23
2019-01-21T10:50:19.554Z,23.60
2019-01-21T10:53:25.649Z,22.40
2019-01-21T10:56:06.037Z,26.97
2019-01-21T10:58:43.949Z,24.53
2019-01-21T11:01:33.488Z,27.40
2019-01-21T11:04:11.322Z,27.00
2019-01-21T11:07:06.962Z,26.70
2019-01-21T11:10:01.596Z,27.97
2019-01-21T11:12:48.041Z,28.23
2019-01-21T11:15:28.621Z,29.80
2019-01-21T11:18:03.330Z,27.47
2019-01-21T11:20:34.805Z,23.47
2019-01-21T11:23:12.182Z,28.63
2019-01-21T11:26:15.465Z,26.63
2019-01-21T11:29:04.100Z,25.90
2019-01-21T11:31:35.572Z,23.93
2019-01-21T11:34:12.715Z,33.47
2019-01-21T11:36:55.897Z,27.40
2019-01-21T11:39:48.363Z,25.30
2019-01-21T11:42:37.949Z,28.80
2019-01-21T11:45:28.660Z,31.60
2019-01-21T11:48:14.778Z,25.83
2019-01-21T11:51:01.412Z,23.93
2019-01-21T11:53:32.876Z,29.23
2019-01-21T11:56:20.912Z,30.07
2019-01-21T11:58:57.997Z,30.53
2019-01-21T12:01:38.489Z,28.33
2019-01-21T12:04:12.984Z,25.00
2019-01-21T12:06:44.525Z,52.23
2019-01-21T12:09:18.949Z,101.20
2019-01-21T12:11:59.421Z,48.60
2019-01-21T12:14:37.394Z,30.57
2019-01-21T12:17:15.037Z,27.70
2019-01-21T12:20:16.856Z,34.13
2019-01-21T12:23:10.764Z,33.60
2019-01-21T12:25:54.104Z,27.27
2019-01-21T12:28:52.701Z,27.90
2019-01-21T12:31:26.985Z,32.30
2019-01-21T12:34:01.417Z,33.27
2019-01-21T12:36:35.776Z,30.00
2019-01-21T12:39:16.582Z,32.73
2019-01-21T12:41:51.065Z,29.33
2019-01-21T12:44:40.813Z,31.87
2019-01-21T12:47:21.194Z,25.40
2019-01-21T12:50:10.879Z,25.63
2019-01-21T12:52:45.478Z,28.20
2019-01-21T12:55:44.436Z,28.10
2019-01-21T12:58:30.795Z,33.67
2019-01-21T13:01:08.231Z,28.13
2019-01-21T13:03:51.808Z,31.73
2019-01-21T13:06:39.566Z,29.20
2019-01-21T13:09:30.509Z,33.53
2019-01-21T13:12:14.366Z,27.50
2019-01-21T13:14:52.016Z,28.70
2019-01-21T13:17:26.821Z,31.13
2019-01-21T13:20:04.129Z,25.70
2019-01-21T13:22:51.538Z,31.13
2019-01-21T13:25:26.040Z,30.20
2019-01-21T13:27:57.795Z,31.90
2019-01-21T13:30:31.990Z,27.33
2019-01-21T13:33:06.301Z,27.53
2019-01-21T13:35:46.159Z,32.50
2019-01-21T13:38:35.665Z,46.63
2019-01-21T13:41:12.644Z,33.33
2019-01-21T13:43:50.414Z,34.07
2019-01-21T13:46:36.829Z,27.77
2019-01-21T13:49:25.495Z,25.63
2019-01-21T13:52:14.365Z,31.17
2019-01-21T13:54:48.826Z,25.87
2019-01-21T13:57:56.478Z,28.00
2019-01-21T14:00:39.863Z,26.13
2019-01-21T14:03:11.349Z,27.43
2019-01-21T14:06:03.584Z,26.87
2019-01-21T14:08:37.757Z,33.27
2019-01-21T14:11:20.993Z,29.83
2019-01-21T14:13:55.629Z,27.13
2019-01-21T14:16:37.626Z,24.93
2019-01-21T14:19:09.474Z,27.27
2019-01-21T14:21:49.828Z,27.07
2019-01-21T14:24:39.172Z,22.83
2019-01-21T14:27:16.542Z,26.70
2019-01-21T14:29:56.895Z,25.07
2019-01-21T14:32:28.661Z,26.33
2019-01-21T14:35:02.632Z,28.17
2019-01-21T14:37:39.723Z,30.30
2019-01-21T14:40:19.975Z,29.10
2019-01-21T14:43:08.467Z,29.83
2019-01-21T14:46:02.026Z,32.63
2019-01-21T14:48:42.211Z,32.50
2019-01-21T14:51:28.806Z,35.13
2019-01-21T14:54:16.834Z,28.40
2019-01-21T14:57:09.325Z,32.00
2019-01-21T14:59:43.784Z,28.53
2019-01-21T15:02:15.371Z,34.33
2019-01-21T15:04:47.143Z,30.47
2019-01-21T15:07:18.899Z,28.20
2019-01-21T15:10:07.003Z,30.63
2019-01-21T15:12:44.202Z,31.93
2019-01-21T15:15:24.665Z,28.70
2019-01-21T15:18:20.507Z,32.57
2019-01-21T15:21:07.077Z,32.80
2019-01-21T15:23:56.306Z,41.50
2019-01-21T15:26:39.777Z,28.90
2019-01-21T15:29:41.341Z,30.60
2019-01-21T15:32:29.436Z,49.87
2019-01-21T15:35:06.736Z,47.73
2019-01-21T15:38:01.957Z,43.20
2019-01-21T15:40:54.466Z,41.17
2019-01-21T15:43:28.962Z,32.80
2019-01-21T15:46:00.564Z,34.60
2019-01-21T15:48:32.033Z,33.93
2019-01-21T15:51:06.554Z,30.30
2019-01-21T15:53:47.217Z,35.47
2019-01-21T15:56:24.999Z,31.70
2019-01-21T15:58:56.742Z,38.13
2019-01-21T16:01:49.180Z,37.90
2019-01-21T16:04:23.376Z,37.10
2019-01-21T16:07:18.060Z,37.73
2019-01-21T16:09:52.360Z,37.90
2019-01-21T16:12:43.515Z,41.27
2019-01-21T16:15:27.192Z,38.40
2019-01-21T16:18:19.669Z,39.90
2019-01-21T16:21:12.747Z,38.60
2019-01-21T16:24:01.636Z,41.90
2019-01-21T16:26:33.409Z,34.17
2019-01-21T16:29:07.637Z,34.90
2019-01-21T16:31:36.493Z,37.90
2019-01-21T16:34:22.949Z,33.73
2019-01-21T16:37:00.168Z,39.27
2019-01-21T16:39:34.682Z,42.00
2019-01-21T16:42:14.294Z,34.57
2019-01-21T16:44:44.567Z,28.20
2019-01-21T16:47:13.499Z,31.80
2019-01-21T16:49:42.219Z,37.33
2019-01-21T16:52:10.800Z,32.63
2019-01-21T16:54:39.418Z,40.53
2019-01-21T16:57:08.054Z,34.17
2019-01-21T16:59:36.724Z,36.17
2019-01-21T17:02:05.420Z,37.40
2019-01-21T17:04:34.063Z,43.67
2019-01-21T17:07:02.809Z,47.53
2019-01-21T17:09:31.236Z,54.87
2019-01-21T17:11:59.821Z,64.17
2019-01-21T17:14:28.465Z,65.57
2019-01-21T17:16:56.955Z,57.67
2019-01-21T17:19:25.345Z,59.60
2019-01-21T17:21:53.766Z,56.07
2019-01-21T17:24:22.167Z,52.07
2019-01-21T17:26:51.019Z,52.80
2019-01-21T17:29:20.032Z,59.07
2019-01-21T17:31:48.465Z,49.43
2019-01-21T17:34:17.210Z,50.77
2019-01-21T17:36:46.056Z,43.70
2019-01-21T17:39:14.595Z,51.23
2019-01-21T17:41:43.344Z,44.80
2019-01-21T17:44:11.977Z,40.47
2019-01-21T17:46:40.528Z,38.77
2019-01-21T17:49:08.976Z,45.73
2019-01-21T17:51:37.942Z,40.10
2019-01-21T17:54:06.901Z,39.73
2019-01-21T17:56:35.750Z,45.07
2019-01-21T17:59:07.316Z,43.53
2019-01-21T18:01:39.222Z,42.23
2019-01-21T18:04:06.059Z,37.60
2019-01-21T18:06:34.946Z,50.63
2019-01-21T18:09:04.974Z,47.60
2019-01-21T18:11:33.743Z,50.60
2019-01-21T18:14:02.907Z,46.67
2019-01-21T18:16:31.366Z,49.30
2019-01-21T18:18:59.960Z,39.90
2019-01-21T18:21:28.488Z,43.73
2019-01-21T18:23:57.641Z,42.00
2019-01-21T18:26:26.473Z,44.53
2019-01-21T18:28:55.514Z,38.43
2019-01-21T18:31:24.285Z,43.90
2019-01-21T18:33:52.807Z,41.40
2019-01-21T18:36:21.410Z,39.13
2019-01-21T18:38:50.069Z,37.33
2019-01-21T18:41:18.944Z,39.20
2019-01-21T18:43:47.690Z,37.77
2019-01-21T18:46:16.464Z,48.83
2019-01-21T18:48:45.325Z,47.80
2019-01-21T18:51:14.289Z,42.63
2019-01-21T18:53:42.861Z,45.37
2019-01-21T18:56:11.706Z,38.93
2019-01-21T18:58:41.394Z,41.73
2019-01-21T19:01:09.925Z,40.80
2019-01-21T19:03:38.467Z,42.00
2019-01-21T19:06:07.123Z,37.63
2019-01-21T19:08:35.581Z,49.00
2019-01-21T19:11:04.653Z,43.50
2019-01-21T19:13:33.451Z,43.17
2019-01-21T19:16:02.265Z,44.77
2019-01-21T19:18:30.784Z,53.53
2019-01-21T19:20:59.664Z,45.17
2019-01-21T19:23:28.433Z,39.30
2019-01-21T19:25:57.088Z,45.27
2019-01-21T19:28:26.210Z,48.10
2019-01-21T19:30:54.949Z,42.07
2019-01-21T19:33:23.598Z,46.40
2019-01-21T19:35:52.902Z,44.03
2019-01-21T19:38:21.691Z,43.60
2019-01-21T19:40:50.573Z,41.67
2019-01-21T19:43:19.665Z,46.80
2019-01-21T19:45:48.368Z,94.23
2019-01-21T19:48:17.134Z,75.57
2019-01-21T19:50:46.175Z,55.47
2019-01-21T19:53:16.356Z,55.03
2019-01-21T19:55:45.130Z,46.67
2019-01-21T19:58:13.667Z,38.53
2019-01-21T20:00:42.829Z,35.87
2019-01-21T20:03:11.745Z,42.37
2019-01-21T20:05:40.734Z,36.00
2019-01-21T20:08:09.387Z,40.53
2019-01-21T20:10:39.173Z,38.43
2019-01-21T20:13:07.957Z,38.40
2019-01-21T20:15:36.723Z,36.60
2019-01-21T20:18:06.173Z,36.97
2019-01-21T20:20:37.614Z,40.43
2019-01-21T20:23:06.396Z,41.33
2019-01-21T20:25:35.169Z,40.33
2019-01-21T20:28:04.034Z,36.87
2019-01-21T20:30:32.876Z,45.67
2019-01-21T20:33:02.630Z,44.03
2019-01-21T20:35:31.656Z,40.73
2019-01-21T20:38:00.373Z,45.33
2019-01-21T20:40:30.126Z,39.53
2019-01-21T20:42:58.940Z,41.97
2019-01-21T20:45:27.690Z,49.70
2019-01-21T20:47:56.302Z,53.83
2019-01-21T20:50:27.560Z,54.23
2019-01-21T20:52:56.684Z,58.67
2019-01-21T20:55:25.467Z,48.63
2019-01-21T20:57:54.408Z,52.00
2019-01-21T21:00:25.374Z,42.30
2019-01-21T21:02:55.123Z,48.97
2019-01-21T21:05:23.810Z,57.37
2019-01-21T21:07:52.513Z,42.07
2019-01-21T21:10:21.382Z,49.00
2019-01-21T21:12:50.190Z,50.60
2019-01-21T21:15:20.989Z,56.20
2019-01-21T21:17:49.702Z,57.80
2019-01-21T21:20:18.606Z,49.57
2019-01-21T21:22:47.435Z,54.07
2019-01-21T21:25:18.124Z,43.60
2019-01-21T21:27:49.199Z,42.27
2019-01-21T21:30:23.197Z,51.20
2019-01-21T21:32:51.705Z,49.10
2019-01-21T21:35:21.036Z,43.63
2019-01-21T21:37:50.810Z,47.17
2019-01-21T21:40:21.241Z,42.47
2019-01-21T21:42:51.041Z,46.53
2019-01-21T21:45:21.336Z,54.87
2019-01-21T21:47:51.467Z,51.30
2019-01-21T21:50:28.250Z,51.27
2019-01-21T21:52:57.404Z,43.23
2019-01-21T21:55:25.995Z,43.60
2019-01-21T21:57:54.622Z,48.13
2019-01-21T22:00:27.892Z,42.67
2019-01-21T22:02:57.198Z,50.47
2019-01-21T22:05:25.990Z,44.13
2019-01-21T22:07:54.573Z,36.07
2019-01-21T22:10:25.460Z,41.27
2019-01-21T22:12:54.657Z,42.30
2019-01-21T22:15:24.970Z,38.50
2019-01-21T22:17:53.547Z,41.77
2019-01-21T22:20:23.591Z,43.40
2019-01-21T22:22:52.481Z,46.83
2019-01-21T22:25:21.404Z,46.07
2019-01-21T22:27:50.040Z,38.10
2019-01-21T22:30:23.548Z,45.60
2019-01-21T22:32:52.365Z,47.80
2019-01-21T22:35:21.023Z,37.70
2019-01-21T22:37:50.351Z,43.10
2019-01-21T22:40:20.660Z,46.03
2019-01-21T22:42:49.690Z,41.57
2019-01-21T22:45:19.748Z,37.70
2019-01-21T22:47:48.599Z,41.40
2019-01-21T22:50:18.505Z,38.87
2019-01-21T22:52:47.075Z,48.47
2019-01-21T22:55:17.084Z,43.70
2019-01-21T22:57:45.728Z,37.07
2019-01-21T23:00:17.890Z,43.27
2019-01-21T23:02:46.687Z,41.63
2019-01-21T23:05:15.535Z,44.40
2019-01-21T23:07:44.058Z,38.53
2019-01-21T23:10:13.028Z,43.30
2019-01-21T23:12:41.994Z,35.40
2019-01-21T23:15:12.059Z,45.43
2019-01-21T23:17:40.601Z,40.37
2019-01-21T23:20:11.056Z,34.93
2019-01-21T23:22:39.649Z,39.63
2019-01-21T23:25:08.502Z,36.47
2019-01-21T23:27:37.472Z,37.60
2019-01-21T23:30:22.836Z,36.97
2019-01-21T23:32:51.496Z,35.93
2019-01-21T23:35:20.252Z,34.00
2019-01-21T23:37:48.947Z,35.57
2019-01-21T23:40:17.613Z,39.97
2019-01-21T23:42:46.155Z,34.40
2019-01-21T23:45:14.995Z,45.93
2019-01-21T23:47:43.623Z,40.23
2019-01-21T23:50:16.940Z,40.07
2019-01-21T23:52:45.450Z,41.13
2019-01-21T23:55:14.526Z,39.30
2019-01-21T23:57:43.354Z,39.03
